Terminal Aerodrome Forecast
Issued by NWS Bismarck, ND

Home | Current Version | Previous Version | Graphics & Text | Print | Product List | Glossary On
Versions: 1 2 3 4 5 6 7 8 9 10 11 12 13 14 15
681
FTUS43 KBIS 231443 AAB
TAFBIS
TAF AMD
KBIS 231443Z 2315/2412 VRB10G16KT P6SM VCTS BKN025 BKN080CB
      TEMPO 2315/2316 BKN015 BKN025 OVC080CB
     FM231800 28012G19KT P6SM SCT035 SCT150
     FM240100 30012KT P6SM SKC
     FM240600 28006KT P6SM SKC=

USA.gov is the U.S. government's official web portal to all federal, state and local government web resources and services.